Time;durP1;ratioP1;P1;durP2;ratioP2;P2;SDS_P1;SDS_P2;PMS_P1;PMS_P2;Temp;Humidity;BMP_temperature;BMP_pressure;BME280_temperature;BME280_humidity;BME280_pressure;Samples;Min_cycle;Max_cycle;Signal;HPM_P1;HPM_P2
2022/09/11 00:01:17;;;;;;;1.27;0.50;;;;;;;14.86;63.42;100405.53;4783038;28;98156;-64
2022/09/11 00:03:44;;;;;;;1.42;0.43;;;;;;;14.82;63.53;100403.69;4796483;29;98082;-64
2022/09/11 00:06:14;;;;;;;3.00;0.90;;;;;;;14.77;63.37;100410.00;4777580;29;103785;-64
2022/09/11 00:08:41;;;;;;;2.92;0.85;;;;;;;14.75;63.59;100416.84;4766223;29;98158;-64
2022/09/11 00:11:16;;;;;;;2.42;1.30;;;;;;;14.71;63.70;100411.19;4788111;29;98100;-70
2022/09/11 00:13:43;;;;;;;2.88;0.80;;;;;;;14.71;63.41;100405.75;4780417;29;98371;-67
2022/09/11 00:16:26;;;;;;;2.80;0.88;;;;;;;14.69;63.07;100399.81;4785833;29;108603;-70
2022/09/11 00:18:53;;;;;;;;;;;;;;;14.70;62.99;100404.16;4800388;29;97988;-64
2022/09/11 00:21:20;;;;;;;1.48;0.60;;;;;;;14.63;63.78;100403.72;4777634;28;98017;-70
2022/09/11 00:23:49;;;;;;;1.77;0.50;;;;;;;14.62;63.55;100404.81;4767546;29;98225;-71
2022/09/11 00:26:18;;;;;;;1.23;0.52;;;;;;;14.60;63.65;100401.59;4762505;29;98060;-71
2022/09/11 00:28:51;;;;;;;1.08;0.40;;;;;;;14.62;63.69;100404.81;4795322;28;98134;-70
2022/09/11 00:31:22;;;;;;;1.30;0.60;;;;;;;14.64;63.75;100408.03;4788203;28;98472;-70
2022/09/11 00:33:48;;;;;;;3.20;0.45;;;;;;;14.66;63.89;100406.66;4792483;29;98533;-64
2022/09/11 00:36:20;;;;;;;2.70;0.40;;;;;;;14.67;63.79;100405.56;4781772;29;97842;-69
2022/09/11 00:38:47;;;;;;;1.55;0.38;;;;;;;14.70;63.95;100409.59;4798206;29;105608;-64
2022/09/11 00:41:27;;;;;;;1.50;0.30;;;;;;;14.71;63.70;100414.72;4773688;29;98771;-69
2022/09/11 00:44:14;;;;;;;1.85;0.45;;;;;;;14.73;63.37;100400.84;4758852;29;98484;-64
2022/09/11 00:46:45;;;;;;;1.40;0.43;;;;;;;14.73;63.93;100407.06;4771253;29;99871;-64
2022/09/11 00:49:38;;;;;;;1.73;0.40;;;;;;;14.74;63.68;100410.59;4797214;28;98178;-64
2022/09/11 00:52:13;;;;;;;1.80;0.40;;;;;;;14.75;63.87;100409.50;4812053;28;98298;-71
2022/09/11 00:54:48;;;;;;;0.90;0.30;;;;;;;14.75;63.97;100408.69;4802831;29;113187;-64
2022/09/11 00:57:19;;;;;;;2.88;0.40;;;;;;;14.73;63.58;100404.34;4780033;29;98020;-64
2022/09/11 00:59:46;;;;;;;0.95;0.30;;;;;;;14.75;64.21;100401.34;4786939;29;100016;-64
2022/09/11 01:02:14;;;;;;;2.17;0.57;;;;;;;14.75;64.28;100401.34;4775177;29;99282;-64
2022/09/11 01:04:40;;;;;;;1.35;0.40;;;;;;;14.74;64.11;100407.91;4768681;28;98032;-64
2022/09/11 01:07:06;;;;;;;1.00;0.35;;;;;;;14.76;64.40;100399.44;4755689;29;98223;-64
2022/09/11 01:09:32;;;;;;;0.75;0.28;;;;;;;14.77;64.43;100401.06;4784021;29;127096;-68
2022/09/11 01:12:49;;;;;;;1.73;0.40;;;;;;;14.76;64.03;100400.25;4771188;28;98436;-69
2022/09/11 01:15:39;;;;;;;1.08;0.30;;;;;;;14.76;64.12;100402.97;4809028;28;98197;-64
2022/09/11 01:18:27;;;;;;;2.13;0.40;;;;;;;14.76;63.76;100413.00;4790746;28;107189;-64
2022/09/11 01:21:51;;;;;;;1.23;0.40;;;;;;;14.76;63.71;100413.81;4775140;29;99623;-64
2022/09/11 01:25:21;;;;;;;0.82;0.28;;;;;;;14.75;63.67;100412.22;4815789;29;98002;-71
2022/09/11 01:27:52;;;;;;;1.05;0.40;;;;;;;14.69;64.37;100407.97;4768981;29;98115;-69
2022/09/11 01:30:31;;;;;;;1.20;0.30;;;;;;;14.66;63.91;100403.94;4773351;28;98518;-64
2022/09/11 01:33:38;;;;;;;1.30;0.43;;;;;;;14.66;64.06;100406.66;4749293;29;97901;-64
2022/09/11 01:36:12;;;;;;;1.77;0.47;;;;;;;14.66;63.97;100409.38;4788487;29;98149;-70
2022/09/11 01:39:01;;;;;;;1.33;0.40;;;;;;;14.66;64.07;100411.28;4769127;29;98236;-64
2022/09/11 01:41:39;;;;;;;1.90;0.47;;;;;;;14.66;64.60;100411.28;4792931;29;97891;-69
2022/09/11 01:44:09;;;;;;;1.13;0.35;;;;;;;14.64;64.55;100411.56;4783377;29;98074;-64
2022/09/11 01:46:46;;;;;;;1.02;0.40;;;;;;;14.62;64.32;100411.06;4783865;29;98034;-70
2022/09/11 01:49:24;;;;;;;0.77;0.20;;;;;;;14.63;64.39;100412.66;4777912;28;98144;-64
2022/09/11 01:51:55;;;;;;;1.15;0.30;;;;;;;14.64;64.37;100418.91;4794809;29;97952;-64
2022/09/11 01:54:23;;;;;;;0.70;0.30;;;;;;;14.63;64.68;100418.09;4782391;28;97942;-64
2022/09/11 01:56:54;;;;;;;1.20;0.30;;;;;;;14.61;64.51;100411.34;4793197;29;98621;-71
2022/09/11 01:59:26;;;;;;;1.50;0.40;;;;;;;14.60;64.75;100415.16;4787306;29;99108;-64
2022/09/11 02:02:06;;;;;;;1.10;0.38;;;;;;;14.60;64.66;100409.75;4779527;29;97954;-70
2022/09/11 02:04:40;;;;;;;0.80;0.30;;;;;;;14.57;64.67;100411.13;4800229;28;99607;-71
2022/09/11 02:07:10;;;;;;;0.85;0.30;;;;;;;14.56;64.56;100411.44;4793800;28;97938;-64
2022/09/11 02:09:42;;;;;;;0.60;0.30;;;;;;;14.57;64.52;100413.03;4782465;29;111817;-64
2022/09/11 02:12:12;;;;;;;1.85;0.50;;;;;;;14.59;64.65;100411.66;4798667;29;109952;-70
2022/09/11 02:14:43;;;;;;;1.27;0.40;;;;;;;14.63;64.63;100403.72;4795564;29;100024;-64
2022/09/11 02:17:44;;;;;;;1.47;0.40;;;;;;;14.71;64.32;100405.75;4785476;29;98427;-64
2022/09/11 02:20:10;;;;;;;2.00;0.40;;;;;;;14.74;64.99;100416.03;4821817;28;125009;-64
2022/09/11 02:22:39;;;;;;;1.13;0.40;;;;;;;14.80;64.69;100411.31;4801769;29;98219;-69
2022/09/11 02:25:05;;;;;;;1.05;0.30;;;;;;;14.83;64.55;100416.16;4790949;29;99315;-64
2022/09/11 02:27:32;;;;;;;0.80;0.30;;;;;;;14.86;64.58;100421.00;4790106;28;98460;-71
2022/09/11 02:30:02;;;;;;;1.02;0.40;;;;;;;14.87;64.60;100409.03;4801764;29;98026;-70
2022/09/11 02:32:31;;;;;;;2.03;0.43;;;;;;;14.87;64.66;100412.53;4780946;29;98309;-71
2022/09/11 02:34:57;;;;;;;2.00;0.50;;;;;;;14.88;65.03;100416.88;4781113;28;97903;-64
2022/09/11 02:37:58;;;;;;;1.00;0.40;;;;;;;14.88;64.87;100411.44;4788404;28;98021;-64
2022/09/11 02:41:08;;;;;;;2.72;0.30;;;;;;;14.89;64.54;100414.94;4807380;29;99563;-64
2022/09/11 02:43:45;;;;;;;0.95;0.30;;;;;;;14.86;64.62;100412.84;4777043;28;98356;-64
2022/09/11 02:46:48;;;;;;;0.77;0.32;;;;;;;14.87;64.46;100417.19;4801974;29;98216;-70
2022/09/11 02:49:28;;;;;;;;;;;;;;;14.87;63.75;100417.19;4811611;28;98227;-64
2022/09/11 02:52:08;;;;;;;1.13;0.43;;;;;;;14.79;64.50;100409.72;4796738;28;100364;-69
2022/09/11 02:54:53;;;;;;;1.58;0.40;;;;;;;14.75;64.50;100405.97;4809141;28;98669;-64
2022/09/11 02:57:44;;;;;;;0.77;0.35;;;;;;;14.76;64.05;100413.81;4796197;29;98125;-69
2022/09/11 03:00:11;;;;;;;0.80;0.30;;;;;;;14.72;64.42;100421.75;4823404;28;97879;-64
2022/09/11 03:02:41;;;;;;;1.77;0.40;;;;;;;14.70;64.71;100415.81;4773013;29;98064;-70
2022/09/11 03:05:08;;;;;;;1.48;0.43;;;;;;;14.71;64.67;100419.34;4750419;29;97783;-64
2022/09/11 03:07:34;;;;;;;1.25;0.38;;;;;;;14.69;64.99;100411.47;4755211;29;99334;-71
2022/09/11 03:10:00;;;;;;;1.08;0.38;;;;;;;14.68;64.70;100420.72;4766290;29;98002;-64
2022/09/11 03:12:27;;;;;;;1.90;0.22;;;;;;;14.68;64.62;100414.50;4768953;29;98508;-71
2022/09/11 03:14:53;;;;;;;0.93;0.30;;;;;;;14.65;64.49;100420.50;4755433;29;98122;-70
2022/09/11 03:17:20;;;;;;;1.10;0.25;;;;;;;14.63;64.91;100418.09;4735131;29;98138;-64
2022/09/11 03:19:47;;;;;;;2.72;0.43;;;;;;;14.61;64.42;100417.56;4757879;29;98241;-71
2022/09/11 03:22:13;;;;;;;0.88;0.28;;;;;;;14.59;64.79;100414.38;4763895;29;98084;-66
2022/09/11 03:24:39;;;;;;;0.95;0.35;;;;;;;14.56;64.48;100414.94;4753860;29;98124;-64
2022/09/11 03:27:06;;;;;;;1.25;0.38;;;;;;;14.53;64.56;100415.53;4751749;29;98133;-64
2022/09/11 03:29:32;;;;;;;1.10;0.30;;;;;;;14.49;64.54;100419.94;4773585;29;98578;-64
2022/09/11 03:31:59;;;;;;;0.90;0.38;;;;;;;14.48;64.48;100415.59;4784523;29;98058;-71
2022/09/11 03:34:25;;;;;;;1.90;0.40;;;;;;;14.44;64.74;100415.38;4763249;29;100028;-64
2022/09/11 03:36:52;;;;;;;1.98;0.50;;;;;;;14.42;65.03;100420.28;4764454;29;127270;-64
2022/09/11 03:39:18;;;;;;;1.33;0.40;;;;;;;14.40;64.84;100419.75;4756167;29;99098;-64
2022/09/11 03:41:44;;;;;;;0.88;0.30;;;;;;;14.37;64.59;100423.06;4757730;29;98506;-64
2022/09/11 03:44:13;;;;;;;1.02;0.30;;;;;;;14.37;64.94;100427.69;4734557;29;114082;-65
2022/09/11 03:46:39;;;;;;;1.35;0.40;;;;;;;14.35;65.03;100427.97;4775358;29;97769;-64
2022/09/11 03:49:06;;;;;;;0.75;0.30;;;;;;;14.33;64.87;100427.44;4773889;29;98544;-70
2022/09/11 03:51:34;;;;;;;1.30;0.60;;;;;;;14.33;65.13;100430.16;4771313;29;98218;-71
2022/09/11 03:54:00;;;;;;;2.38;0.63;;;;;;;14.32;65.03;100430.47;4768862;29;99974;-64
2022/09/11 03:56:27;;;;;;;2.20;0.50;;;;;;;14.31;64.87;100429.66;4741684;29;98363;-64
2022/09/11 03:58:59;;;;;;;2.72;0.50;;;;;;;14.30;64.68;100430.75;4749284;29;98309;-64
2022/09/11 04:01:25;;;;;;;1.83;0.40;;;;;;;14.29;64.81;100429.13;4784415;28;98463;-64
2022/09/11 04:03:51;;;;;;;2.08;0.60;;;;;;;14.29;64.82;100439.97;4777819;29;97998;-64
2022/09/11 04:06:19;;;;;;;1.25;0.50;;;;;;;14.27;65.01;100446.81;4761311;29;98523;-66
2022/09/11 04:08:45;;;;;;;1.23;0.40;;;;;;;14.28;64.96;100440.28;4778664;29;98272;-64
2022/09/11 04:11:12;;;;;;;1.42;0.57;;;;;;;14.28;65.17;100440.28;4777272;28;98221;-70
2022/09/11 04:13:40;;;;;;;1.48;0.50;;;;;;;14.28;65.16;100438.38;4778998;29;98303;-64
2022/09/11 04:16:11;;;;;;;2.13;0.88;;;;;;;14.28;64.72;100448.41;4764345;29;97955;-64
2022/09/11 04:18:38;;;;;;;2.33;0.70;;;;;;;14.29;65.06;100453.53;4786336;29;98027;-70
2022/09/11 04:21:10;;;;;;;1.30;0.60;;;;;;;14.29;64.86;100452.75;4787497;28;99393;-64
2022/09/11 04:23:37;;;;;;;2.42;0.60;;;;;;;14.30;64.78;100457.84;4772022;29;97917;-64
2022/09/11 04:26:14;;;;;;;2.65;0.70;;;;;;;14.29;65.16;100450.03;4760464;29;99408;-70
2022/09/11 04:28:40;;;;;;;2.30;0.70;;;;;;;14.29;64.48;100452.75;4778061;29;98271;-64
2022/09/11 04:31:06;;;;;;;3.83;0.82;;;;;;;14.28;65.06;100464.69;4775473;28;101330;-64
2022/09/11 04:33:38;;;;;;;1.77;0.60;;;;;;;14.25;65.12;100455.22;4788286;29;105026;-64
2022/09/11 04:36:24;;;;;;;1.67;0.80;;;;;;;14.23;64.54;100454.72;4774105;29;99884;-69
2022/09/11 04:38:56;;;;;;;1.15;0.60;;;;;;;14.20;64.72;100458.00;4775570;29;98003;-64
2022/09/11 04:41:23;;;;;;;2.33;0.80;;;;;;;14.20;64.79;100460.72;4788652;28;98102;-71
2022/09/11 04:43:54;;;;;;;1.27;0.55;;;;;;;14.17;64.86;100462.09;4778816;28;98106;-70
2022/09/11 04:46:22;;;;;;;1.77;0.67;;;;;;;14.16;64.90;100463.19;4755666;29;97871;-64
2022/09/11 04:48:54;;;;;;;2.03;0.80;;;;;;;14.16;65.22;100463.19;4775025;29;97988;-70
2022/09/11 04:51:27;;;;;;;0.88;0.45;;;;;;;14.17;64.79;100472.13;4774582;28;98276;-70
2022/09/11 04:53:56;;;;;;;2.50;0.68;;;;;;;14.18;65.13;100476.47;4793586;29;98016;-70
2022/09/11 04:56:28;;;;;;;2.08;0.75;;;;;;;14.19;64.73;100473.47;4783541;29;98074;-67
2022/09/11 04:59:14;;;;;;;3.42;0.80;;;;;;;14.19;64.56;100475.38;4793267;29;98186;-69
2022/09/11 05:01:41;;;;;;;1.55;0.95;;;;;;;14.22;65.28;100474.78;4792567;28;97998;-64
2022/09/11 05:04:11;;;;;;;1.88;0.77;;;;;;;14.24;64.85;100475.31;4810434;28;97951;-64
2022/09/11 05:06:38;;;;;;;1.92;0.88;;;;;;;14.28;64.84;100478.25;4793110;28;99394;-64
2022/09/11 05:09:07;;;;;;;1.80;0.68;;;;;;;14.29;65.16;100483.38;4789757;28;98944;-64
2022/09/11 05:11:34;;;;;;;2.17;1.02;;;;;;;14.34;64.70;100479.78;4776548;29;98273;-64
2022/09/11 05:14:03;;;;;;;2.80;1.05;;;;;;;14.35;65.06;100487.63;4776867;28;98912;-64
2022/09/11 05:16:29;;;;;;;2.28;0.85;;;;;;;14.39;64.90;100488.66;4808382;29;97844;-64
2022/09/11 05:18:56;;;;;;;3.63;1.05;;;;;;;14.42;64.97;100487.25;4805893;28;98002;-64
2022/09/11 05:21:25;;;;;;;3.35;1.10;;;;;;;14.43;64.82;100497.03;4814205;29;98564;-64
2022/09/11 05:23:53;;;;;;;3.13;1.05;;;;;;;14.43;64.68;100494.31;4809469;28;97931;-64
2022/09/11 05:26:25;;;;;;;2.53;1.25;;;;;;;14.45;64.68;100503.75;4806829;28;97981;-64
2022/09/11 05:28:57;;;;;;;3.63;1.47;;;;;;;14.49;64.56;100504.00;4762107;29;98116;-64
2022/09/11 05:31:24;;;;;;;4.32;1.40;;;;;;;14.52;65.11;100505.34;4805580;29;99400;-64
2022/09/11 05:33:51;;;;;;;3.92;1.80;;;;;;;14.52;64.88;100506.13;4804810;29;98696;-64
2022/09/11 05:36:18;;;;;;;3.53;1.58;;;;;;;14.56;65.10;100506.38;4807361;28;97836;-64
2022/09/11 05:38:44;;;;;;;5.07;1.50;;;;;;;14.59;65.02;100511.22;4806520;29;97753;-64
2022/09/11 05:41:12;;;;;;;4.00;2.00;;;;;;;14.61;65.41;100509.00;4802855;28;98568;-64
2022/09/11 05:43:39;;;;;;;3.17;1.73;;;;;;;14.64;64.88;100514.63;4760056;29;98591;-64
2022/09/11 05:46:07;;;;;;;3.60;1.67;;;;;;;14.68;65.05;100515.66;4781619;29;98865;-64
2022/09/11 05:48:35;;;;;;;5.03;1.98;;;;;;;14.75;65.17;100514.50;4803237;29;97878;-64
2022/09/11 05:51:08;;;;;;;3.50;2.05;;;;;;;14.82;65.15;100514.94;4777295;28;98376;-64
2022/09/11 05:53:35;;;;;;;4.60;2.30;;;;;;;14.89;64.80;100524.31;4795923;29;98763;-65
2022/09/11 05:56:16;;;;;;;3.95;1.73;;;;;;;14.93;64.57;100521.81;4820244;28;98429;-64
2022/09/11 05:58:45;;;;;;;3.77;1.77;;;;;;;14.99;65.31;100526.06;4810781;28;98540;-64
2022/09/11 06:01:16;;;;;;;3.92;1.98;;;;;;;15.03;64.86;100534.44;4778287;29;98623;-64
2022/09/11 06:03:42;;;;;;;5.13;1.85;;;;;;;15.05;64.97;100543.91;4794344;29;98159;-64
2022/09/11 06:06:12;;;;;;;4.32;2.15;;;;;;;15.06;64.77;100542.00;4766057;29;99150;-64
2022/09/11 06:08:42;;;;;;;4.18;2.40;;;;;;;15.07;64.82;100549.84;4792280;29;98266;-64
2022/09/11 06:11:09;;;;;;;5.00;2.38;;;;;;;15.05;65.20;100548.50;4795147;29;97797;-64
2022/09/11 06:13:41;;;;;;;4.00;2.35;;;;;;;15.05;65.50;100552.06;4767010;28;98643;-64
2022/09/11 06:16:11;;;;;;;4.75;2.45;;;;;;;15.06;65.27;100550.13;4761506;29;98106;-64
2022/09/11 06:18:38;;;;;;;3.33;2.20;;;;;;;15.06;65.19;100548.22;4753480;29;98125;-64
2022/09/11 06:21:07;;;;;;;7.00;2.58;;;;;;;15.07;65.01;100552.53;4790160;29;100306;-64
2022/09/11 06:23:40;;;;;;;4.57;2.65;;;;;;;15.07;65.00;100555.25;4796971;29;98223;-64
2022/09/11 06:26:10;;;;;;;4.55;2.42;;;;;;;15.11;65.59;100561.72;4765847;29;98857;-64
2022/09/11 06:28:39;;;;;;;7.30;2.63;;;;;;;15.11;65.33;100564.44;4785092;29;97797;-64
2022/09/11 06:31:19;;;;;;;4.55;2.42;;;;;;;15.14;65.25;100569.28;4791643;29;100511;-64
2022/09/11 06:33:46;;;;;;;4.63;2.67;;;;;;;15.16;65.40;100569.78;4795929;29;98482;-65
2022/09/11 06:36:28;;;;;;;5.03;2.70;;;;;;;15.19;65.51;100576.53;4779181;29;98158;-64
2022/09/11 06:38:56;;;;;;;;;;;;;;;15.23;64.47;100569.41;4762936;29;98242;-65
2022/09/11 06:41:25;;;;;;;4.47;2.35;;;;;;;15.16;65.14;100572.50;4808501;29;98525;-64
2022/09/11 06:43:53;;;;;;;6.07;2.63;;;;;;;15.13;65.25;100578.53;4762285;29;98902;-64
2022/09/11 06:46:22;;;;;;;5.43;3.03;;;;;;;15.16;65.53;100577.13;4772087;29;98186;-64
2022/09/11 06:48:49;;;;;;;5.80;2.88;;;;;;;15.19;65.54;100587.38;4787306;28;97954;-64
2022/09/11 06:51:18;;;;;;;6.97;3.17;;;;;;;15.23;65.58;100588.41;4751286;29;100420;-65
2022/09/11 06:53:46;;;;;;;4.28;3.03;;;;;;;15.28;65.30;100592.94;4801559;28;98146;-65
2022/09/11 06:56:15;;;;;;;5.43;2.83;;;;;;;15.32;65.22;100592.06;4764625;28;97954;-65
2022/09/11 06:58:42;;;;;;;6.40;2.97;;;;;;;15.35;65.58;100598.81;4774911;29;98223;-65
2022/09/11 07:01:14;;;;;;;8.88;3.38;;;;;;;15.35;65.11;100602.34;4773672;28;98957;-64
2022/09/11 07:03:45;;;;;;;7.75;3.50;;;;;;;15.37;65.38;100596.63;4788803;28;98948;-65
2022/09/11 07:06:17;;;;;;;7.95;3.70;;;;;;;15.36;65.12;100606.66;4758162;28;97931;-64
2022/09/11 07:09:02;;;;;;;7.82;3.45;;;;;;;15.37;65.58;100612.94;4769659;29;97969;-64
2022/09/11 07:11:45;;;;;;;8.88;3.72;;;;;;;15.36;65.38;100603.13;4769224;29;99019;-64
2022/09/11 07:14:12;;;;;;;8.88;3.63;;;;;;;15.37;65.73;100612.94;4767802;29;98654;-64
2022/09/11 07:16:38;;;;;;;9.77;4.07;;;;;;;15.36;65.87;100619.44;4790801;28;97936;-64
2022/09/11 07:19:09;;;;;;;8.23;3.70;;;;;;;15.34;65.84;100616.22;4776019;28;98576;-64
2022/09/11 07:21:39;;;;;;;6.75;3.85;;;;;;;15.33;65.70;100620.06;4794387;29;100093;-64
2022/09/11 07:24:05;;;;;;;9.20;4.45;;;;;;;15.35;65.92;100620.53;4782667;28;98631;-64
2022/09/11 07:26:34;;;;;;;9.00;4.57;;;;;;;15.40;65.72;100618.53;4773254;28;98009;-65
2022/09/11 07:29:00;;;;;;;6.53;4.20;;;;;;;15.42;65.88;100626.41;4780759;29;98045;-64
2022/09/11 07:31:31;;;;;;;10.95;4.60;;;;;;;15.42;65.75;100624.50;4765151;28;100480;-65
2022/09/11 07:33:59;;;;;;;7.20;4.13;;;;;;;15.45;65.84;100628.56;4773230;28;98440;-64
2022/09/11 07:36:32;;;;;;;8.23;4.35;;;;;;;15.49;65.54;100624.13;4763417;29;98373;-64
2022/09/11 07:38:59;;;;;;;8.52;4.35;;;;;;;15.51;65.66;100630.06;4766686;29;98140;-65
2022/09/11 07:41:26;;;;;;;10.43;5.28;;;;;;;15.54;65.48;100629.47;4793025;28;98646;-65
2022/09/11 07:43:55;;;;;;;13.80;4.82;;;;;;;15.52;65.86;100628.94;4792336;28;99875;-64
2022/09/11 07:46:23;;;;;;;11.07;5.20;;;;;;;15.51;65.58;100631.97;4792950;29;98424;-65
2022/09/11 07:48:49;;;;;;;7.93;4.47;;;;;;;15.53;65.87;100627.06;4768212;28;98036;-65
2022/09/11 07:51:20;;;;;;;8.65;4.85;;;;;;;15.55;65.61;100633.00;4767153;28;98409;-65
2022/09/11 07:53:50;;;;;;;9.13;5.22;;;;;;;15.61;65.49;100629.09;4785113;29;98513;-66
2022/09/11 07:56:25;;;;;;;9.98;5.00;;;;;;;15.65;65.19;100639.13;4790498;28;98174;-66
2022/09/11 07:58:53;;;;;;;12.77;5.00;;;;;;;15.69;65.43;100642.84;4793961;28;98254;-66
2022/09/11 08:01:28;;;;;;;9.18;4.65;;;;;;;15.69;65.33;100637.41;4783933;28;98708;-66
2022/09/11 08:03:57;;;;;;;12.23;5.53;;;;;;;15.74;65.46;100641.94;4745619;29;98611;-66
2022/09/11 08:06:26;;;;;;;9.88;4.32;;;;;;;15.79;65.38;100647.28;4773258;28;97888;-66
2022/09/11 08:08:57;;;;;;;9.85;5.07;;;;;;;15.85;64.87;100646.13;4783429;28;98135;-66
2022/09/11 08:11:25;;;;;;;11.00;5.30;;;;;;;15.92;65.13;100649.25;4776402;28;98607;-65
2022/09/11 08:13:54;;;;;;;10.55;4.97;;;;;;;16.02;65.15;100650.19;4768538;29;98564;-65
2022/09/11 08:16:22;;;;;;;9.23;4.38;;;;;;;16.03;65.13;100657.22;4791391;28;98593;-66
2022/09/11 08:18:48;;;;;;;9.50;4.90;;;;;;;16.07;65.05;100660.94;4790667;28;98005;-66
2022/09/11 08:21:15;;;;;;;10.88;5.57;;;;;;;16.10;64.63;100665.81;4781714;29;98608;-66
2022/09/11 08:23:42;;;;;;;12.00;5.90;;;;;;;16.12;64.87;100663.59;4775902;28;100362;-66
2022/09/11 08:26:21;;;;;;;10.00;4.85;;;;;;;16.11;64.78;100670.13;4796618;28;98151;-66
2022/09/11 08:28:49;;;;;;;10.10;5.57;;;;;;;16.06;65.08;100671.03;4789718;28;98582;-66
2022/09/11 08:31:18;;;;;;;8.48;4.88;;;;;;;16.06;65.20;100671.03;4756254;28;98163;-66
2022/09/11 08:33:45;;;;;;;13.02;5.97;;;;;;;16.08;65.75;100678.91;4769937;28;98743;-66
2022/09/11 08:36:14;;;;;;;10.40;5.28;;;;;;;16.08;65.19;100682.41;4769083;28;98165;-72
2022/09/11 08:38:40;;;;;;;8.18;5.18;;;;;;;16.10;65.29;100680.19;4803229;29;97978;-66
2022/09/11 08:41:10;;;;;;;10.38;5.85;;;;;;;16.12;65.00;100690.78;4792707;28;98441;-70
2022/09/11 08:44:16;;;;;;;8.40;5.78;;;;;;;16.17;65.27;100690.69;4823796;28;97874;-73
2022/09/11 08:46:56;;;;;;;14.68;6.03;;;;;;;16.17;65.08;100688.78;4755379;29;98957;-70
2022/09/11 08:49:42;;;;;;;11.20;6.18;;;;;;;16.21;64.97;100686.28;4780328;28;98006;-73
2022/09/11 08:52:10;;;;;;;9.80;5.85;;;;;;;16.28;65.03;100691.31;4765559;28;98446;-66
2022/09/11 08:54:37;;;;;;;11.77;6.03;;;;;;;16.32;65.01;100701.31;4798833;29;111778;-72
2022/09/11 08:57:15;;;;;;;15.35;5.88;;;;;;;16.47;64.77;100710.31;4788911;29;99223;-65
2022/09/11 09:00:23;;;;;;;11.98;5.30;;;;;;;16.59;64.52;100711.41;4788440;29;97973;-66
2022/09/11 09:03:29;;;;;;;7.70;4.90;;;;;;;16.54;64.61;100716.94;4786470;28;98743;-65
2022/09/11 09:06:23;;;;;;;8.60;4.80;;;;;;;16.56;64.72;100711.19;4831193;28;98405;-66
2022/09/11 09:09:38;;;;;;;10.10;5.30;;;;;;;16.63;64.43;100712.41;4802979;28;98063;-72
2022/09/11 09:12:20;;;;;;;9.20;4.55;;;;;;;16.70;64.40;100720.16;4746272;29;98078;-72
2022/09/11 09:14:57;;;;;;;11.00;5.60;;;;;;;16.71;64.26;100716.34;4750719;29;97986;-66
2022/09/11 09:17:36;;;;;;;9.73;4.53;;;;;;;16.71;64.44;100716.34;4776454;29;100278;-65
2022/09/11 09:20:23;;;;;;;8.35;4.80;;;;;;;16.75;64.32;100720.13;4818478;28;98411;-71
2022/09/11 09:23:02;;;;;;;8.57;5.25;;;;;;;16.77;64.44;100723.31;4822274;28;97984;-71
2022/09/11 09:25:28;;;;;;;9.63;5.35;;;;;;;16.78;64.60;100726.84;4819049;28;98517;-65
2022/09/11 09:27:56;;;;;;;10.68;5.55;;;;;;;16.80;64.63;100725.44;4814789;28;99982;-72
2022/09/11 09:30:26;;;;;;;9.38;5.40;;;;;;;16.84;64.55;100729.19;4826286;28;98151;-71
2022/09/11 09:33:02;;;;;;;10.07;4.88;;;;;;;16.83;64.75;100727.56;4807508;28;98289;-65
2022/09/11 09:35:39;;;;;;;11.10;5.47;;;;;;;16.79;64.63;100734.72;4797063;28;98164;-65
2022/09/11 09:38:21;;;;;;;8.05;5.32;;;;;;;16.75;64.59;100728.28;4794098;28;98939;-65
2022/09/11 09:41:24;;;;;;;7.95;4.75;;;;;;;16.72;64.68;100733.50;4800582;28;98484;-66
2022/09/11 09:44:13;;;;;;;9.00;4.90;;;;;;;16.69;64.59;100735.69;4794483;28;98193;-65
2022/09/11 09:46:43;;;;;;;7.78;4.18;;;;;;;16.72;64.58;100737.00;4799683;28;98341;-72
2022/09/11 09:49:11;;;;;;;6.65;4.03;;;;;;;16.77;64.44;100736.94;4793972;29;98363;-65
2022/09/11 09:51:41;;;;;;;7.32;4.43;;;;;;;16.81;64.27;100740.66;4802663;28;97952;-71
2022/09/11 09:54:17;;;;;;;6.75;4.03;;;;;;;16.78;64.52;100741.28;4779153;28;98444;-71
2022/09/11 09:56:51;;;;;;;6.75;3.85;;;;;;;16.77;64.71;100752.47;4782925;28;98296;-65
2022/09/11 09:59:44;;;;;;;6.90;3.60;;;;;;;16.77;64.33;100747.81;4814342;28;98395;-65
2022/09/11 10:02:11;;;;;;;5.78;3.90;;;;;;;16.80;64.48;100749.94;4801007;29;98113;-66
2022/09/11 10:04:38;;;;;;;5.88;3.22;;;;;;;16.86;64.29;100754.19;4796055;28;98227;-71
2022/09/11 10:07:19;;;;;;;5.75;3.38;;;;;;;16.89;64.11;100752.78;4795561;28;98527;-73
2022/09/11 10:09:53;;;;;;;6.40;3.40;;;;;;;16.89;64.11;100750.84;4782240;28;98367;-66
2022/09/11 10:12:25;;;;;;;5.85;2.97;;;;;;;16.85;64.20;100754.47;4769892;29;98166;-66
2022/09/11 10:14:59;;;;;;;5.40;3.10;;;;;;;16.85;64.09;100754.47;4812126;28;98326;-66
2022/09/11 10:17:37;;;;;;;5.28;3.15;;;;;;;16.85;64.11;100762.66;4792695;28;98461;-72
2022/09/11 10:20:18;;;;;;;5.07;3.10;;;;;;;16.84;64.12;100766.50;4789915;28;100122;-66
2022/09/11 10:22:48;;;;;;;6.97;3.67;;;;;;;16.80;64.62;100762.75;4829051;28;98269;-66
2022/09/11 10:25:25;;;;;;;10.43;5.00;;;;;;;16.78;64.24;100773.13;4790342;29;98357;-71
2022/09/11 10:28:30;;;;;;;7.28;4.18;;;;;;;16.81;63.98;100773.34;4778205;29;98244;-66
2022/09/11 10:30:59;;;;;;;8.48;3.97;;;;;;;16.79;64.21;100772.84;4785090;28;98821;-66
2022/09/11 10:33:38;;;;;;;5.72;3.65;;;;;;;16.80;64.11;100779.09;4809181;28;98649;-66
2022/09/11 10:36:07;;;;;;;8.38;4.22;;;;;;;16.86;63.85;100780.63;4820602;28;98370;-66
2022/09/11 10:38:46;;;;;;;7.28;4.05;;;;;;;16.85;63.80;100782.50;4790869;28;98856;-66
2022/09/11 10:41:12;;;;;;;10.43;4.03;;;;;;;16.81;64.20;100786.94;4785870;28;98450;-66
2022/09/11 10:44:01;;;;;;;6.22;3.78;;;;;;;16.76;63.95;100787.06;4808494;28;97980;-66
2022/09/11 10:46:37;;;;;;;6.65;3.58;;;;;;;16.72;64.26;100786.00;4816999;28;98326;-72
2022/09/11 10:49:24;;;;;;;6.32;3.72;;;;;;;16.72;64.04;100786.00;4793903;28;98473;-66
2022/09/11 10:52:14;;;;;;;6.95;3.90;;;;;;;16.68;63.95;100795.88;4792729;29;98554;-66
2022/09/11 10:55:14;;;;;;;7.47;4.13;;;;;;;16.79;63.88;100782.94;4823666;28;98897;-73
2022/09/11 10:57:46;;;;;;;5.57;3.80;;;;;;;17.10;63.33;100780.41;4792098;28;98272;-66
2022/09/11 11:00:22;;;;;;;;;;;;;;;17.62;61.92;100781.75;4788596;28;97920;-72
2022/09/11 11:02:51;;;;;;;5.40;3.35;;;;;;;17.90;62.00;100785.22;4824039;28;98021;-66
2022/09/11 11:05:38;;;;;;;6.40;3.58;;;;;;;18.47;61.04;100786.56;4795808;28;98042;-66
2022/09/11 11:08:29;;;;;;;6.65;3.70;;;;;;;18.66;60.99;100784.41;4790156;28;99296;-66
2022/09/11 11:11:39;;;;;;;8.02;3.00;;;;;;;18.68;61.28;100793.13;4811646;28;98643;-66
2022/09/11 11:14:23;;;;;;;6.70;3.17;;;;;;;18.51;61.44;100787.53;4819897;28;97976;-66
2022/09/11 11:17:02;;;;;;;4.65;3.10;;;;;;;18.47;62.05;100800.19;4796083;28;98071;-66
2022/09/11 11:19:44;;;;;;;4.38;2.50;;;;;;;18.44;61.88;100796.19;4791814;28;98189;-66
2022/09/11 11:22:58;;;;;;;3.92;2.13;;;;;;;18.63;61.31;100796.00;4800684;28;100270;-66
2022/09/11 11:25:33;;;;;;;4.80;2.55;;;;;;;18.80;60.81;100796.09;4793621;28;98067;-66
2022/09/11 11:28:22;;;;;;;5.40;2.22;;;;;;;18.93;60.78;100797.09;4799536;28;98235;-66
2022/09/11 11:31:23;;;;;;;5.18;2.40;;;;;;;19.15;60.73;100803.63;4794759;28;101393;-66
2022/09/11 11:34:18;;;;;;;4.65;2.45;;;;;;;19.40;60.13;100805.59;4806219;28;98142;-66
2022/09/11 11:37:16;;;;;;;5.03;2.40;;;;;;;19.42;59.83;100808.03;4779781;29;98710;-71
2022/09/11 11:40:05;;;;;;;3.92;2.35;;;;;;;19.71;59.51;100799.25;4793726;28;98511;-69
2022/09/11 11:42:45;;;;;;;5.70;2.72;;;;;;;19.82;59.06;100804.09;4812588;28;98096;-66
2022/09/11 11:45:54;;;;;;;6.68;2.50;;;;;;;20.79;57.43;100802.84;4815884;28;98478;-66
2022/09/11 11:48:35;;;;;;;6.45;2.75;;;;;;;21.68;55.94;100800.91;4826318;28;98124;-66
2022/09/11 11:51:05;;;;;;;4.50;2.35;;;;;;;24.56;50.54;100809.84;4797767;28;108219;-67
2022/09/11 11:54:19;;;;;;;4.05;2.08;;;;;;;25.38;50.51;100809.13;4765197;28;98001;-67
2022/09/11 11:56:50;;;;;;;4.00;2.38;;;;;;;27.49;46.73;100813.09;4778047;29;98229;-67
2022/09/11 11:59:30;;;;;;;3.67;2.10;;;;;;;27.18;48.47;100809.47;4756796;28;98198;-67